Kezdőlap
METAR-TAF:

METAR-TAF

Repülőterek :

Kókusz, Ausztrália

földrajzi szélesség: 12-11S, földrajzi hosszúság: 096-49E, magasság: 3 m

Jelenlegi meteorológiai megfigyelések

A jelentés 38 perccel ezelõtt készült, 07:30 UTC
Kelet-délkeleti szél 13 kt
Hőmérséklet 28°C
Páratartalom 74%
Légköri nyomás 1014 hPa
Látótávolság 10 km, vagy több
Szórványos felhőzet 1800 lábon

METAR: YPCC 180730Z 11013KT 9999 SCT018 28/23 Q1014

Idő: 14:38 (08:08 UTC)

Előrejelzés

A jelentés 3 órával és 5 perccel ezelõtt készült, 05:03 UTC
Az előrejelzés 18-én 06 óra UTC és 19-én 06 óra UTC között érvényes
Kelet-délkeleti szél 14 kt
Látótávolság: 4000 m
Szórványos felhőzet 1200 lábon
Szakadozott felhőzet 2000 lábon
Szakadozott felhőzet 1200 lábon
enyhe záporok, záporok

TAF: YPCC 180503Z 1806/1906 11014KT 9999 -SHRA SCT012 BKN020 INTER 1806/1906 4000 SHRA BKN012

Meteorológiai megfigyelések és előrejelzések több, mint 4000 repülőtéren (METAR és TAF jelentéseket).

A térképen piros és sárga pontok jelzik az elérhető meteorológiai állomásokat.

Mozgassa az egeret a pont fölött, hogy megjelenjen az állomás neve.

Azután kattintson az időjárási megfigyelések és előrejelzések megtekintéséhez.

A térkép megváltoztatása: kattintson a fekete keresztel jelölt zöld gombra ráközelítéshez, a vonallal jelölt zöld gombra távolításhoz, vagy a zöld nyilakra a szomszédos térképek eléréséhez.


METAR-TAF: